createdAt,value
2019-01-21T00:01:19.504Z,42.70
2019-01-21T00:03:48.941Z,45.93
2019-01-21T00:06:18.353Z,45.97
2019-01-21T00:08:47.999Z,47.73
2019-01-21T00:11:17.410Z,36.00
2019-01-21T00:13:46.860Z,47.63
2019-01-21T00:16:17.033Z,48.73
2019-01-21T00:18:46.394Z,46.13
2019-01-21T00:21:16.054Z,45.83
2019-01-21T00:23:45.485Z,49.20
2019-01-21T00:26:14.879Z,51.73
2019-01-21T00:28:44.252Z,45.63
2019-01-21T00:31:13.687Z,62.97
2019-01-21T00:33:43.114Z,50.30
2019-01-21T00:36:12.680Z,48.20
2019-01-21T00:38:42.499Z,48.03
2019-01-21T00:41:11.973Z,45.87
2019-01-21T00:43:41.370Z,50.47
2019-01-21T00:46:10.957Z,48.47
2019-01-21T00:48:40.725Z,49.13
2019-01-21T00:51:10.229Z,52.37
2019-01-21T00:53:39.619Z,55.80
2019-01-21T00:56:09.018Z,51.23
2019-01-21T00:58:38.551Z,49.97
2019-01-21T01:01:07.988Z,47.53
2019-01-21T01:03:37.395Z,51.80
2019-01-21T01:06:07.196Z,54.13
2019-01-21T01:08:36.668Z,53.87
2019-01-21T01:11:06.227Z,52.53
2019-01-21T01:13:35.626Z,52.13
2019-01-21T01:16:05.195Z,53.77
2019-01-21T01:18:34.774Z,50.90
2019-01-21T01:21:04.328Z,49.90
2019-01-21T01:23:33.972Z,52.67
2019-01-21T01:26:03.450Z,57.47
2019-01-21T01:28:32.882Z,46.37
2019-01-21T01:31:02.559Z,55.00
2019-01-21T01:33:31.958Z,66.50
2019-01-21T01:36:01.353Z,56.03
2019-01-21T01:38:31.010Z,61.93
2019-01-21T01:41:00.803Z,56.00
2019-01-21T01:43:30.501Z,53.60
2019-01-21T01:46:00.039Z,57.50
2019-01-21T01:48:30.326Z,57.63
2019-01-21T01:51:00.053Z,55.37
2019-01-21T01:53:30.112Z,53.50
2019-01-21T01:56:00.222Z,56.57
2019-01-21T01:58:29.678Z,54.10
2019-01-21T02:00:59.194Z,58.60
2019-01-21T02:03:29.369Z,53.30
2019-01-21T02:05:59.222Z,50.40
2019-01-21T02:08:28.767Z,52.17
2019-01-21T02:10:58.855Z,52.47
2019-01-21T02:13:28.364Z,49.80
2019-01-21T02:15:57.975Z,51.93
2019-01-21T02:18:27.812Z,54.47
2019-01-21T02:20:58.890Z,43.13
2019-01-21T02:23:37.135Z,46.70
2019-01-21T02:26:09.758Z,42.17
2019-01-21T02:28:48.577Z,52.13
2019-01-21T02:31:57.271Z,52.60
2019-01-21T02:34:32.964Z,52.23
2019-01-21T02:37:29.105Z,47.20
2019-01-21T02:40:01.986Z,48.50
2019-01-21T02:42:37.309Z,48.87
2019-01-21T02:45:24.505Z,47.23
2019-01-21T02:48:09.354Z,50.33
2019-01-21T02:50:50.858Z,52.07
2019-01-21T02:53:26.382Z,52.30
2019-01-21T02:56:15.699Z,55.20
2019-01-21T02:58:57.481Z,55.97
2019-01-21T03:01:39.706Z,48.90
2019-01-21T03:04:31.575Z,45.77
2019-01-21T03:07:13.162Z,51.07
2019-01-21T03:10:00.412Z,51.93
2019-01-21T03:12:42.126Z,49.70
2019-01-21T03:15:23.532Z,52.60
2019-01-21T03:17:56.015Z,54.17
2019-01-21T03:20:36.889Z,48.97
2019-01-21T03:23:28.288Z,52.40
2019-01-21T03:26:09.615Z,50.23
2019-01-21T03:28:42.540Z,53.97
2019-01-21T03:31:18.180Z,52.87
2019-01-21T03:34:05.909Z,49.70
2019-01-21T03:36:57.623Z,55.30
2019-01-21T03:39:56.247Z,51.93
2019-01-21T03:42:34.663Z,51.63
2019-01-21T03:45:26.676Z,45.93
2019-01-21T03:48:00.380Z,47.97
2019-01-21T03:50:48.084Z,50.57
2019-01-21T03:53:32.916Z,51.03
2019-01-21T03:56:04.990Z,45.97
2019-01-21T03:58:46.531Z,48.63
2019-01-21T04:01:25.024Z,43.30
2019-01-21T04:04:23.641Z,46.00
2019-01-21T04:06:56.582Z,49.17
2019-01-21T04:09:35.430Z,48.73
2019-01-21T04:12:28.803Z,49.03
2019-01-21T04:15:17.991Z,48.33
2019-01-21T04:18:16.295Z,44.97
2019-01-21T04:21:02.199Z,44.27
2019-01-21T04:23:59.159Z,44.57
2019-01-21T04:26:34.948Z,47.33
2019-01-21T04:29:25.364Z,45.67
2019-01-21T04:32:00.659Z,43.80
2019-01-21T04:34:45.071Z,52.73
2019-01-21T04:37:23.911Z,53.50
2019-01-21T04:39:56.487Z,48.40
2019-01-21T04:43:01.598Z,53.33
2019-01-21T04:45:54.569Z,49.60
2019-01-21T04:48:33.196Z,56.13
2019-01-21T04:51:03.931Z,49.93
2019-01-21T04:53:43.801Z,46.77
2019-01-21T04:56:40.647Z,55.80
2019-01-21T04:59:18.940Z,49.90
2019-01-21T05:02:19.772Z,47.47
2019-01-21T05:04:52.226Z,46.17
2019-01-21T05:07:41.316Z,47.77
2019-01-21T05:10:45.549Z,53.97
2019-01-21T05:13:33.043Z,52.97
2019-01-21T05:16:14.099Z,50.77
2019-01-21T05:18:46.759Z,52.07
2019-01-21T05:21:25.459Z,48.63
2019-01-21T05:24:01.113Z,53.87
2019-01-21T05:26:51.427Z,54.80
2019-01-21T05:29:29.859Z,56.10
2019-01-21T05:32:21.828Z,52.10
2019-01-21T05:35:11.278Z,58.70
2019-01-21T05:37:55.758Z,58.43
2019-01-21T05:40:39.900Z,51.43
2019-01-21T05:43:47.325Z,55.80
2019-01-21T05:46:22.488Z,54.57
2019-01-21T05:49:17.871Z,50.43
2019-01-21T05:52:04.474Z,56.43
2019-01-21T05:55:05.974Z,49.83
2019-01-21T05:58:03.552Z,52.20
2019-01-21T06:00:44.786Z,51.93
2019-01-21T06:03:17.323Z,51.70
2019-01-21T06:06:12.507Z,56.07
2019-01-21T06:09:04.981Z,54.23
2019-01-21T06:11:37.624Z,50.83
2019-01-21T06:14:10.090Z,52.17
2019-01-21T06:16:59.141Z,52.70
2019-01-21T06:19:46.327Z,49.27
2019-01-21T06:22:21.460Z,59.70
2019-01-21T06:24:54.006Z,61.17
2019-01-21T06:27:44.687Z,75.27
2019-01-21T06:30:40.097Z,67.83
2019-01-21T06:33:36.993Z,60.57
2019-01-21T06:36:15.325Z,55.43
2019-01-21T06:39:14.908Z,56.83
2019-01-21T06:41:47.437Z,54.27
2019-01-21T06:44:51.459Z,59.73
2019-01-21T06:47:23.947Z,58.17
2019-01-21T06:50:20.317Z,61.03
2019-01-21T06:53:01.742Z,57.50
2019-01-21T06:55:56.926Z,54.13
2019-01-21T06:58:41.047Z,54.47
2019-01-21T07:01:46.774Z,57.90
2019-01-21T07:04:19.397Z,56.37
2019-01-21T07:07:09.848Z,58.67
2019-01-21T07:10:00.602Z,55.30
2019-01-21T07:12:45.001Z,56.03
2019-01-21T07:15:28.838Z,57.43
2019-01-21T07:18:25.947Z,51.10
2019-01-21T07:21:02.758Z,59.77
2019-01-21T07:23:51.623Z,60.97
2019-01-21T07:26:32.766Z,53.27
2019-01-21T07:29:23.526Z,59.03
2019-01-21T07:31:58.695Z,53.63
2019-01-21T07:34:37.072Z,61.97
2019-01-21T07:37:21.807Z,55.23
2019-01-21T07:40:00.356Z,59.17
2019-01-21T07:42:39.063Z,53.07
2019-01-21T07:45:29.711Z,51.83
2019-01-21T07:48:20.023Z,53.60
2019-01-21T07:51:07.639Z,59.90
2019-01-21T07:53:49.126Z,53.53
2019-01-21T07:56:24.541Z,58.20
2019-01-21T07:59:16.950Z,58.40
2019-01-21T08:01:55.013Z,70.37
2019-01-21T08:04:33.304Z,52.87
2019-01-21T08:07:05.776Z,55.87
2019-01-21T08:09:44.325Z,60.30
2019-01-21T08:12:38.070Z,58.20
2019-01-21T08:15:13.455Z,54.03
2019-01-21T08:17:55.045Z,52.50
2019-01-21T08:20:27.774Z,51.63
2019-01-21T08:23:09.327Z,52.90
2019-01-21T08:25:50.559Z,53.17
2019-01-21T08:28:45.410Z,52.20
2019-01-21T08:31:26.936Z,47.23
2019-01-21T08:34:20.083Z,48.10
2019-01-21T08:37:24.399Z,51.17
2019-01-21T08:40:09.083Z,44.90
2019-01-21T08:42:58.352Z,45.63
2019-01-21T08:45:59.760Z,45.43
2019-01-21T08:48:35.062Z,46.67
2019-01-21T08:51:24.159Z,42.13
2019-01-21T08:54:03.120Z,48.23
2019-01-21T08:56:38.118Z,49.07
2019-01-21T08:59:32.816Z,45.13
2019-01-21T09:02:30.260Z,44.50
2019-01-21T09:05:20.480Z,47.43
2019-01-21T09:08:28.271Z,52.40
2019-01-21T09:11:22.392Z,46.47
2019-01-21T09:14:14.341Z,50.37
2019-01-21T09:16:49.926Z,48.07
2019-01-21T09:19:25.364Z,46.60
2019-01-21T09:21:57.846Z,43.07
2019-01-21T09:24:33.358Z,44.93
2019-01-21T09:27:26.749Z,45.40
2019-01-21T09:30:19.036Z,45.57
2019-01-21T09:33:06.489Z,46.13
2019-01-21T09:35:59.728Z,47.40
2019-01-21T09:38:41.799Z,45.80
2019-01-21T09:41:35.604Z,46.53
2019-01-21T09:44:19.943Z,45.43
2019-01-21T09:46:48.259Z,40.57
2019-01-21T09:49:16.592Z,39.33
2019-01-21T09:51:49.477Z,36.80
2019-01-21T09:54:21.209Z,31.23
2019-01-21T09:56:52.247Z,27.77
2019-01-21T09:59:23.013Z,26.33
2019-01-21T10:01:55.522Z,25.93
2019-01-21T10:04:33.551Z,24.53
2019-01-21T10:07:22.332Z,24.90
2019-01-21T10:10:06.506Z,23.43
2019-01-21T10:12:59.692Z,22.30
2019-01-21T10:15:55.095Z,19.77
2019-01-21T10:18:49.026Z,19.73
2019-01-21T10:21:24.103Z,19.53
2019-01-21T10:24:02.458Z,20.07
2019-01-21T10:26:37.687Z,25.63
2019-01-21T10:29:19.004Z,21.53
2019-01-21T10:32:20.507Z,22.03
2019-01-21T10:34:55.926Z,21.60
2019-01-21T10:38:01.514Z,24.90
2019-01-21T10:40:44.489Z,24.03
2019-01-21T10:43:22.539Z,25.50
2019-01-21T10:46:09.808Z,26.07
2019-01-21T10:48:45.033Z,28.13
2019-01-21T10:51:20.320Z,25.60
2019-01-21T10:53:58.557Z,30.90
2019-01-21T10:56:49.206Z,28.77
2019-01-21T10:59:31.385Z,28.00
2019-01-21T11:02:23.239Z,27.73
2019-01-21T11:05:10.970Z,26.30
2019-01-21T11:07:49.342Z,27.73
2019-01-21T11:10:40.084Z,31.13
2019-01-21T11:13:15.447Z,23.50
2019-01-21T11:15:50.590Z,23.87
2019-01-21T11:18:34.727Z,22.87
2019-01-21T11:21:16.353Z,25.27
2019-01-21T11:23:51.351Z,23.47
2019-01-21T11:26:43.818Z,22.10
2019-01-21T11:29:38.703Z,23.70
2019-01-21T11:32:17.015Z,23.37
2019-01-21T11:34:55.466Z,23.33
2019-01-21T11:37:33.811Z,22.10
2019-01-21T11:40:09.301Z,20.57
2019-01-21T11:43:00.085Z,24.33
2019-01-21T11:45:53.584Z,23.67
2019-01-21T11:48:26.151Z,22.80
2019-01-21T11:51:13.903Z,23.57
2019-01-21T11:53:53.402Z,24.10
2019-01-21T11:56:46.363Z,24.33
2019-01-21T11:59:43.176Z,25.07
2019-01-21T12:02:28.055Z,31.30
2019-01-21T12:05:03.175Z,29.10
2019-01-21T12:07:38.530Z,29.73
2019-01-21T12:10:16.698Z,27.43
2019-01-21T12:13:18.201Z,30.00
2019-01-21T12:16:22.364Z,28.87
2019-01-21T12:19:19.442Z,29.60
2019-01-21T12:21:54.944Z,26.37
2019-01-21T12:24:25.436Z,29.20
2019-01-21T12:26:58.004Z,29.87
2019-01-21T12:29:50.376Z,25.37
2019-01-21T12:32:32.376Z,23.93
2019-01-21T12:35:30.873Z,23.83
2019-01-21T12:38:09.134Z,22.87
2019-01-21T12:41:02.802Z,23.03
2019-01-21T12:43:41.181Z,23.37
2019-01-21T12:46:22.828Z,23.87
2019-01-21T12:49:13.574Z,23.80
2019-01-21T12:51:46.298Z,22.77
2019-01-21T12:54:21.570Z,22.80
2019-01-21T12:57:13.349Z,22.83
2019-01-21T12:59:54.971Z,23.73
2019-01-21T13:02:58.219Z,23.37
2019-01-21T13:05:36.717Z,22.93
2019-01-21T13:08:22.853Z,24.93
2019-01-21T13:10:55.328Z,23.97
2019-01-21T13:13:36.916Z,24.40
2019-01-21T13:16:15.449Z,23.13
2019-01-21T13:19:04.425Z,25.77
2019-01-21T13:21:57.877Z,23.67
2019-01-21T13:24:50.976Z,22.90
2019-01-21T13:27:37.218Z,23.93
2019-01-21T13:30:27.536Z,24.73
2019-01-21T13:33:18.310Z,26.30
2019-01-21T13:36:11.435Z,25.00
2019-01-21T13:39:09.704Z,26.83
2019-01-21T13:41:47.969Z,32.53
2019-01-21T13:44:31.965Z,29.53
2019-01-21T13:47:22.546Z,30.20
2019-01-21T13:49:58.061Z,28.43
2019-01-21T13:52:52.231Z,31.97
2019-01-21T13:55:39.635Z,31.10
2019-01-21T13:58:32.938Z,35.03
2019-01-21T14:01:11.472Z,33.10
2019-01-21T14:04:02.265Z,27.27
2019-01-21T14:06:53.163Z,15.13
2019-01-21T14:09:28.979Z,12.43
2019-01-21T14:12:21.119Z,14.27
2019-01-21T14:15:24.128Z,14.73
2019-01-21T14:17:59.668Z,22.90
2019-01-21T14:20:35.179Z,20.00
2019-01-21T14:23:31.963Z,15.27
2019-01-21T14:26:36.079Z,13.97
2019-01-21T14:29:13.123Z,15.53
2019-01-21T14:32:03.410Z,18.43
2019-01-21T14:34:41.805Z,18.20
2019-01-21T14:37:41.998Z,23.90
2019-01-21T14:40:17.292Z,17.53
2019-01-21T14:43:08.603Z,22.83
2019-01-21T14:45:59.585Z,18.40
2019-01-21T14:48:37.935Z,15.33
2019-01-21T14:51:10.510Z,17.23
2019-01-21T14:53:46.162Z,16.73
2019-01-21T14:56:30.683Z,18.27
2019-01-21T14:59:28.770Z,15.33
2019-01-21T15:01:58.732Z,20.57
2019-01-21T15:04:33.922Z,22.13
2019-01-21T15:07:08.346Z,18.80
2019-01-21T15:09:43.748Z,37.50
2019-01-21T15:12:24.932Z,37.70
2019-01-21T15:15:24.452Z,33.93
2019-01-21T15:18:08.652Z,38.53
2019-01-21T15:20:41.199Z,38.30
2019-01-21T15:23:16.258Z,39.73
2019-01-21T15:25:57.588Z,39.97
2019-01-21T15:28:45.143Z,40.33
2019-01-21T15:31:37.042Z,41.77
2019-01-21T15:34:22.679Z,47.53
2019-01-21T15:37:02.366Z,45.67
2019-01-21T15:39:38.955Z,48.37
2019-01-21T15:42:32.263Z,48.70
2019-01-21T15:45:04.716Z,45.60
2019-01-21T15:47:49.049Z,43.67
2019-01-21T15:50:30.323Z,46.23
2019-01-21T15:53:11.719Z,45.10
2019-01-21T15:55:52.751Z,47.90
2019-01-21T15:58:27.878Z,45.60
2019-01-21T16:01:06.251Z,44.20
2019-01-21T16:03:41.602Z,45.80
2019-01-21T16:06:16.684Z,51.57
2019-01-21T16:09:10.108Z,45.40
2019-01-21T16:11:54.525Z,44.67
2019-01-21T16:14:28.295Z,47.53
2019-01-21T16:17:06.776Z,47.10
2019-01-21T16:19:36.846Z,46.77
2019-01-21T16:22:21.451Z,47.30
2019-01-21T16:24:54.016Z,48.20
2019-01-21T16:27:37.249Z,47.53
2019-01-21T16:30:10.911Z,47.30
2019-01-21T16:32:42.576Z,44.90
2019-01-21T16:35:30.503Z,45.67
2019-01-21T16:38:05.625Z,47.20
2019-01-21T16:40:45.666Z,47.40
2019-01-21T16:43:15.107Z,52.67
2019-01-21T16:45:44.699Z,47.20
2019-01-21T16:48:14.212Z,45.90
2019-01-21T16:50:43.666Z,50.30
2019-01-21T16:53:13.309Z,52.90
2019-01-21T16:55:42.849Z,60.70
2019-01-21T16:58:12.371Z,55.57
2019-01-21T17:00:41.801Z,63.53
2019-01-21T17:03:11.355Z,58.83
2019-01-21T17:05:41.042Z,56.40
2019-01-21T17:08:10.569Z,63.53
2019-01-21T17:10:40.195Z,63.53
2019-01-21T17:13:11.165Z,59.93
2019-01-21T17:15:40.683Z,64.30
2019-01-21T17:18:10.210Z,63.53
2019-01-21T17:20:39.610Z,59.00
2019-01-21T17:23:09.142Z,58.77
2019-01-21T17:25:38.630Z,59.83
2019-01-21T17:28:09.649Z,60.03
2019-01-21T17:30:39.255Z,56.77
2019-01-21T17:33:08.721Z,53.37
2019-01-21T17:35:40.362Z,56.13
2019-01-21T17:38:09.914Z,61.63
2019-01-21T17:40:39.534Z,58.80
2019-01-21T17:43:08.995Z,58.10
2019-01-21T17:45:38.479Z,59.13
2019-01-21T17:48:08.013Z,61.37
2019-01-21T17:50:37.664Z,60.00
2019-01-21T17:53:07.112Z,62.87
2019-01-21T17:55:36.644Z,60.17
2019-01-21T17:58:06.179Z,61.87
2019-01-21T18:00:35.779Z,55.40
2019-01-21T18:03:05.690Z,53.33
2019-01-21T18:05:35.209Z,58.10
2019-01-21T18:08:04.793Z,58.20
2019-01-21T18:10:34.295Z,53.37
2019-01-21T18:13:03.766Z,55.70
2019-01-21T18:15:33.226Z,61.50
2019-01-21T18:18:02.799Z,60.47
2019-01-21T18:20:32.305Z,60.17
2019-01-21T18:23:02.062Z,54.93
2019-01-21T18:25:33.032Z,58.47
2019-01-21T18:28:02.702Z,55.10
2019-01-21T18:30:32.956Z,61.77
2019-01-21T18:33:03.865Z,53.30
2019-01-21T18:35:33.322Z,53.93
2019-01-21T18:38:02.843Z,58.10
2019-01-21T18:40:32.409Z,62.30
2019-01-21T18:43:03.441Z,59.00
2019-01-21T18:45:33.084Z,59.40
2019-01-21T18:48:04.211Z,59.33
2019-01-21T18:50:33.743Z,61.80
2019-01-21T18:53:03.205Z,61.13
2019-01-21T18:55:32.747Z,61.13
2019-01-21T18:58:02.121Z,57.47
2019-01-21T19:00:31.585Z,65.97
2019-01-21T19:03:00.966Z,61.90
2019-01-21T19:05:30.420Z,71.23
2019-01-21T19:08:01.391Z,68.57
2019-01-21T19:10:30.795Z,70.00
2019-01-21T19:13:00.237Z,74.97
2019-01-21T19:15:30.962Z,73.53
2019-01-21T19:18:00.535Z,72.47
2019-01-21T19:20:30.087Z,70.63
2019-01-21T19:22:59.520Z,69.10
2019-01-21T19:25:28.978Z,72.97
2019-01-21T19:27:58.413Z,66.80
2019-01-21T19:30:28.474Z,67.87
2019-01-21T19:32:58.052Z,72.73
2019-01-21T19:35:32.421Z,66.37
2019-01-21T19:38:01.996Z,64.13
2019-01-21T19:40:32.260Z,67.10
2019-01-21T19:43:01.876Z,67.43
2019-01-21T19:45:31.400Z,63.93
2019-01-21T19:48:00.963Z,63.70
2019-01-21T19:50:30.490Z,67.60
2019-01-21T19:53:00.034Z,61.73
2019-01-21T19:55:37.937Z,67.70
2019-01-21T19:58:08.023Z,60.20
2019-01-21T20:00:37.573Z,59.33
2019-01-21T20:03:07.070Z,60.63
2019-01-21T20:05:36.595Z,63.90
2019-01-21T20:08:06.163Z,70.73
2019-01-21T20:10:35.811Z,71.07
2019-01-21T20:13:05.281Z,67.27
2019-01-21T20:15:34.909Z,64.33
2019-01-21T20:18:05.199Z,61.23
2019-01-21T20:20:37.442Z,54.43
2019-01-21T20:23:07.035Z,56.73
2019-01-21T20:25:36.432Z,53.57
2019-01-21T20:28:08.973Z,57.57
2019-01-21T20:30:38.456Z,57.00
2019-01-21T20:33:08.027Z,56.07
2019-01-21T20:35:37.551Z,57.57
2019-01-21T20:38:07.206Z,55.70
2019-01-21T20:40:36.878Z,50.77
2019-01-21T20:43:06.304Z,53.47
2019-01-21T20:45:35.900Z,51.63
2019-01-21T20:48:05.467Z,47.20
2019-01-21T20:50:36.001Z,47.73
2019-01-21T20:53:05.854Z,47.03
2019-01-21T20:55:35.564Z,45.27
2019-01-21T20:58:05.395Z,49.80
2019-01-21T21:00:35.808Z,50.63
2019-01-21T21:03:05.582Z,46.53
2019-01-21T21:05:36.079Z,48.17
2019-01-21T21:08:05.586Z,47.03
2019-01-21T21:10:35.042Z,48.10
2019-01-21T21:13:04.560Z,45.67
2019-01-21T21:15:34.410Z,47.87
2019-01-21T21:18:04.005Z,49.30
2019-01-21T21:20:33.711Z,50.07
2019-01-21T21:23:03.111Z,48.37
2019-01-21T21:25:33.839Z,45.77
2019-01-21T21:28:03.292Z,51.90
2019-01-21T21:30:46.072Z,43.57
2019-01-21T21:33:17.242Z,49.43
2019-01-21T21:35:46.710Z,50.43
2019-01-21T21:38:16.215Z,55.07
2019-01-21T21:40:45.836Z,49.30
2019-01-21T21:43:15.396Z,50.73
2019-01-21T21:45:45.027Z,48.93
2019-01-21T21:48:14.620Z,48.47
2019-01-21T21:50:44.083Z,54.67
2019-01-21T21:53:13.716Z,47.43
2019-01-21T21:55:43.263Z,50.97
2019-01-21T21:58:12.815Z,48.73
2019-01-21T22:00:42.471Z,49.70
2019-01-21T22:03:12.009Z,50.87
2019-01-21T22:05:41.612Z,48.67
2019-01-21T22:08:11.092Z,49.77
2019-01-21T22:10:40.571Z,52.90
2019-01-21T22:13:10.046Z,54.67
2019-01-21T22:15:41.091Z,51.70
2019-01-21T22:18:10.593Z,51.57
2019-01-21T22:20:40.077Z,52.37
2019-01-21T22:23:09.553Z,52.17
2019-01-21T22:25:39.011Z,57.47
2019-01-21T22:28:08.685Z,54.83
2019-01-21T22:30:38.331Z,55.70
2019-01-21T22:33:07.783Z,56.83
2019-01-21T22:35:37.267Z,53.50
2019-01-21T22:38:06.777Z,51.77
2019-01-21T22:40:36.384Z,51.27
2019-01-21T22:43:05.990Z,55.57
2019-01-21T22:45:36.929Z,54.67
2019-01-21T22:48:07.053Z,53.30
2019-01-21T22:50:36.661Z,53.50
2019-01-21T22:53:06.122Z,53.43
2019-01-21T22:55:35.615Z,57.60
2019-01-21T22:58:18.936Z,56.87
2019-01-21T23:00:54.540Z,53.60
2019-01-21T23:03:24.217Z,50.77
2019-01-21T23:05:53.836Z,55.30
2019-01-21T23:08:23.703Z,52.80
2019-01-21T23:10:53.156Z,50.87
2019-01-21T23:13:22.627Z,52.87
2019-01-21T23:15:53.799Z,53.67
2019-01-21T23:18:23.393Z,52.97
2019-01-21T23:21:04.792Z,51.47
2019-01-21T23:23:34.436Z,51.73
2019-01-21T23:26:04.344Z,62.13
2019-01-21T23:28:33.766Z,57.20
2019-01-21T23:31:03.802Z,57.03
2019-01-21T23:33:33.377Z,55.07
2019-01-21T23:36:02.825Z,52.90
2019-01-21T23:38:32.404Z,53.20
2019-01-21T23:41:02.448Z,58.90
2019-01-21T23:43:32.263Z,58.77
2019-01-21T23:46:01.928Z,58.30
2019-01-21T23:48:31.384Z,58.93
2019-01-21T23:51:00.870Z,58.87
2019-01-21T23:53:30.420Z,61.37
2019-01-21T23:56:11.611Z,61.50
2019-01-21T23:58:41.549Z,61.53
